createdAt,value
2019-02-26T08:11:54.437Z,99.90
2019-02-26T08:14:25.495Z,99.90
2019-02-26T08:16:56.223Z,99.90
2019-02-26T08:19:29.611Z,99.90
2019-02-26T08:21:57.112Z,99.90
2019-02-26T08:24:25.954Z,99.90
2019-02-26T08:26:54.795Z,99.90
2019-02-26T08:29:24.514Z,99.90
2019-02-26T08:31:54.946Z,99.90
2019-02-26T08:34:25.094Z,99.90
2019-02-26T08:36:54.029Z,99.90
2019-02-26T08:39:23.033Z,99.90
2019-02-26T08:42:13.942Z,99.90
2019-02-26T08:44:46.203Z,99.90
2019-02-26T08:47:16.848Z,99.90
2019-02-26T08:49:47.620Z,99.90
2019-02-26T08:52:17.477Z,99.90
2019-02-26T08:54:47.236Z,99.90
2019-02-26T08:57:16.168Z,99.90
2019-02-26T08:59:47.158Z,99.90
2019-02-26T09:02:16.568Z,99.90
2019-02-26T09:04:47.791Z,99.90
2019-02-26T09:07:17.118Z,99.90
2019-02-26T09:09:48.111Z,99.90
2019-02-26T09:12:18.007Z,99.90
2019-02-26T09:14:49.870Z,99.90
2019-02-26T09:17:20.875Z,99.90
2019-02-26T09:19:50.864Z,99.90
2019-02-26T09:22:21.154Z,99.90
2019-02-26T09:24:51.955Z,99.90
2019-02-26T09:27:24.329Z,99.90
2019-02-26T09:29:53.536Z,99.90
2019-02-26T09:32:22.801Z,99.90
2019-02-26T09:34:52.099Z,99.90
2019-02-26T09:37:22.281Z,99.90
2019-02-26T09:39:52.057Z,99.90
2019-02-26T09:42:23.299Z,99.90
2019-02-26T09:44:55.422Z,99.90
2019-02-26T09:47:33.254Z,99.80
2019-02-26T09:50:01.501Z,98.70
2019-02-26T09:52:32.634Z,97.80
2019-02-26T09:55:01.124Z,96.80
2019-02-26T09:57:33.778Z,95.90
2019-02-26T10:00:03.358Z,94.50
2019-02-26T10:02:32.528Z,93.40
2019-02-26T10:05:01.638Z,91.80
2019-02-26T10:07:31.317Z,90.80
2019-02-26T10:10:03.507Z,88.80
2019-02-26T10:12:32.809Z,87.70
2019-02-26T10:15:04.716Z,84.60
2019-02-26T10:17:35.774Z,83.40
2019-02-26T10:20:08.596Z,83.40
2019-02-26T10:22:38.512Z,82.30
2019-02-26T10:25:07.925Z,79.60
2019-02-26T10:27:38.812Z,77.90
2019-02-26T10:30:11.222Z,76.60
2019-02-26T10:32:40.583Z,74.30
2019-02-26T10:35:13.998Z,72.70
2019-02-26T10:37:44.408Z,71.30
2019-02-26T10:40:14.560Z,69.60
2019-02-26T10:42:46.114Z,67.90
2019-02-26T10:45:15.468Z,68.10
2019-02-26T10:47:44.500Z,68.50
2019-02-26T10:50:16.355Z,68.30
2019-02-26T10:52:46.256Z,67.80
2019-02-26T10:55:17.626Z,69.20
2019-02-26T10:57:47.814Z,64.00
2019-02-26T11:00:19.133Z,62.90
2019-02-26T11:02:48.458Z,61.60
2019-02-26T11:05:21.428Z,60.00
2019-02-26T11:07:49.463Z,60.80
2019-02-26T11:10:20.783Z,61.50
2019-02-26T11:12:50.536Z,59.80
